sensor_id;sensor_type;location;lat;lon;timestamp;P1;durP1;ratioP1;P2;durP2;ratioP2
31676;SDS011;18385;51.572;6.578;2024-03-17T00:02:17;8.52;;;3.92;;
31676;SDS011;18385;51.572;6.578;2024-03-17T00:04:43;10.32;;;4.85;;
31676;SDS011;18385;51.572;6.578;2024-03-17T00:07:10;13.35;;;4.72;;
31676;SDS011;18385;51.572;6.578;2024-03-17T00:09:36;14.80;;;4.88;;
31676;SDS011;18385;51.572;6.578;2024-03-17T00:12:02;11.65;;;5.05;;
31676;SDS011;18385;51.572;6.578;2024-03-17T00:14:27;13.20;;;4.50;;
31676;SDS011;18385;51.572;6.578;2024-03-17T00:16:54;9.70;;;4.68;;
31676;SDS011;18385;51.572;6.578;2024-03-17T00:19:20;9.55;;;4.47;;
31676;SDS011;18385;51.572;6.578;2024-03-17T00:21:47;13.30;;;4.43;;
31676;SDS011;18385;51.572;6.578;2024-03-17T00:24:15;11.32;;;4.60;;
31676;SDS011;18385;51.572;6.578;2024-03-17T00:26:42;12.00;;;5.28;;
31676;SDS011;18385;51.572;6.578;2024-03-17T00:29:07;12.27;;;4.18;;
31676;SDS011;18385;51.572;6.578;2024-03-17T00:31:33;13.07;;;4.25;;
31676;SDS011;18385;51.572;6.578;2024-03-17T00:33:59;8.57;;;4.07;;
31676;SDS011;18385;51.572;6.578;2024-03-17T00:36:25;6.75;;;3.83;;
31676;SDS011;18385;51.572;6.578;2024-03-17T00:38:51;9.25;;;3.80;;
31676;SDS011;18385;51.572;6.578;2024-03-17T00:41:19;6.65;;;3.75;;
31676;SDS011;18385;51.572;6.578;2024-03-17T00:43:46;6.53;;;3.50;;
31676;SDS011;18385;51.572;6.578;2024-03-17T00:46:12;7.45;;;3.75;;
31676;SDS011;18385;51.572;6.578;2024-03-17T00:48:38;7.90;;;3.42;;
31676;SDS011;18385;51.572;6.578;2024-03-17T00:51:03;9.93;;;4.05;;
31676;SDS011;18385;51.572;6.578;2024-03-17T00:53:30;7.50;;;3.45;;
31676;SDS011;18385;51.572;6.578;2024-03-17T00:55:56;9.02;;;4.13;;
31676;SDS011;18385;51.572;6.578;2024-03-17T00:58:25;7.07;;;3.22;;
31676;SDS011;18385;51.572;6.578;2024-03-17T01:00:51;10.77;;;5.38;;
31676;SDS011;18385;51.572;6.578;2024-03-17T01:03:17;12.32;;;4.07;;
31676;SDS011;18385;51.572;6.578;2024-03-17T01:05:43;8.68;;;3.58;;
31676;SDS011;18385;51.572;6.578;2024-03-17T01:08:11;8.82;;;3.90;;
31676;SDS011;18385;51.572;6.578;2024-03-17T01:10:38;8.30;;;3.95;;
31676;SDS011;18385;51.572;6.578;2024-03-17T01:13:07;10.55;;;4.20;;
31676;SDS011;18385;51.572;6.578;2024-03-17T01:15:34;10.40;;;4.32;;
31676;SDS011;18385;51.572;6.578;2024-03-17T01:18:00;14.88;;;5.43;;
31676;SDS011;18385;51.572;6.578;2024-03-17T01:20:26;13.45;;;3.95;;
31676;SDS011;18385;51.572;6.578;2024-03-17T01:22:52;8.77;;;3.70;;
31676;SDS011;18385;51.572;6.578;2024-03-17T01:25:17;8.40;;;3.53;;
31676;SDS011;18385;51.572;6.578;2024-03-17T01:27:43;11.10;;;4.75;;
31676;SDS011;18385;51.572;6.578;2024-03-17T01:30:10;12.90;;;3.83;;
31676;SDS011;18385;51.572;6.578;2024-03-17T01:32:36;9.57;;;3.75;;
31676;SDS011;18385;51.572;6.578;2024-03-17T01:35:01;9.13;;;3.95;;
31676;SDS011;18385;51.572;6.578;2024-03-17T01:37:27;9.35;;;3.90;;
31676;SDS011;18385;51.572;6.578;2024-03-17T01:39:57;9.07;;;4.18;;
31676;SDS011;18385;51.572;6.578;2024-03-17T01:42:23;8.90;;;4.00;;
31676;SDS011;18385;51.572;6.578;2024-03-17T01:44:49;10.35;;;3.97;;
31676;SDS011;18385;51.572;6.578;2024-03-17T01:47:16;10.57;;;4.60;;
31676;SDS011;18385;51.572;6.578;2024-03-17T01:49:45;8.70;;;4.00;;
31676;SDS011;18385;51.572;6.578;2024-03-17T01:52:12;12.23;;;5.97;;
31676;SDS011;18385;51.572;6.578;2024-03-17T01:54:39;16.48;;;6.90;;
31676;SDS011;18385;51.572;6.578;2024-03-17T01:57:06;11.63;;;6.28;;
31676;SDS011;18385;51.572;6.578;2024-03-17T01:59:32;14.95;;;7.82;;
31676;SDS011;18385;51.572;6.578;2024-03-17T02:01:58;13.07;;;5.78;;
31676;SDS011;18385;51.572;6.578;2024-03-17T02:04:25;8.27;;;4.68;;
31676;SDS011;18385;51.572;6.578;2024-03-17T02:06:50;13.75;;;4.93;;
31676;SDS011;18385;51.572;6.578;2024-03-17T02:09:16;14.00;;;4.95;;
31676;SDS011;18385;51.572;6.578;2024-03-17T02:11:43;11.73;;;5.53;;
31676;SDS011;18385;51.572;6.578;2024-03-17T02:14:09;10.30;;;5.10;;
31676;SDS011;18385;51.572;6.578;2024-03-17T02:16:36;8.55;;;4.20;;
31676;SDS011;18385;51.572;6.578;2024-03-17T02:19:01;7.38;;;4.03;;
31676;SDS011;18385;51.572;6.578;2024-03-17T02:21:27;8.93;;;3.80;;
31676;SDS011;18385;51.572;6.578;2024-03-17T02:23:53;8.95;;;4.32;;
31676;SDS011;18385;51.572;6.578;2024-03-17T02:26:19;9.20;;;4.20;;
31676;SDS011;18385;51.572;6.578;2024-03-17T02:28:46;11.85;;;5.18;;
31676;SDS011;18385;51.572;6.578;2024-03-17T02:31:13;13.20;;;5.70;;
31676;SDS011;18385;51.572;6.578;2024-03-17T02:33:40;9.63;;;4.55;;
31676;SDS011;18385;51.572;6.578;2024-03-17T02:36:07;8.85;;;4.75;;
31676;SDS011;18385;51.572;6.578;2024-03-17T02:38:34;12.63;;;4.30;;
31676;SDS011;18385;51.572;6.578;2024-03-17T02:41:19;10.85;;;4.05;;
31676;SDS011;18385;51.572;6.578;2024-03-17T02:43:45;8.43;;;3.83;;
31676;SDS011;18385;51.572;6.578;2024-03-17T02:46:11;12.20;;;5.40;;
31676;SDS011;18385;51.572;6.578;2024-03-17T02:48:41;16.38;;;5.28;;
31676;SDS011;18385;51.572;6.578;2024-03-17T02:51:12;15.45;;;4.55;;
31676;SDS011;18385;51.572;6.578;2024-03-17T02:53:42;10.13;;;4.88;;
31676;SDS011;18385;51.572;6.578;2024-03-17T02:56:09;11.05;;;4.32;;
31676;SDS011;18385;51.572;6.578;2024-03-17T02:58:36;7.97;;;4.18;;
31676;SDS011;18385;51.572;6.578;2024-03-17T03:01:03;11.30;;;4.72;;
31676;SDS011;18385;51.572;6.578;2024-03-17T03:03:30;10.02;;;4.55;;
31676;SDS011;18385;51.572;6.578;2024-03-17T03:05:56;10.50;;;4.65;;
31676;SDS011;18385;51.572;6.578;2024-03-17T03:08:22;13.43;;;4.13;;
31676;SDS011;18385;51.572;6.578;2024-03-17T03:10:48;13.73;;;4.25;;
31676;SDS011;18385;51.572;6.578;2024-03-17T03:13:14;8.68;;;4.47;;
31676;SDS011;18385;51.572;6.578;2024-03-17T03:15:39;14.20;;;4.57;;
31676;SDS011;18385;51.572;6.578;2024-03-17T03:18:05;14.52;;;5.20;;
31676;SDS011;18385;51.572;6.578;2024-03-17T03:20:31;11.13;;;4.45;;
31676;SDS011;18385;51.572;6.578;2024-03-17T03:22:57;10.65;;;4.30;;
31676;SDS011;18385;51.572;6.578;2024-03-17T03:25:22;12.52;;;4.47;;
31676;SDS011;18385;51.572;6.578;2024-03-17T03:27:48;9.32;;;4.10;;
31676;SDS011;18385;51.572;6.578;2024-03-17T03:30:14;13.20;;;4.60;;
31676;SDS011;18385;51.572;6.578;2024-03-17T03:32:41;14.07;;;4.43;;
31676;SDS011;18385;51.572;6.578;2024-03-17T03:35:07;13.82;;;4.70;;
31676;SDS011;18385;51.572;6.578;2024-03-17T03:37:34;9.75;;;4.10;;
31676;SDS011;18385;51.572;6.578;2024-03-17T03:40:00;9.63;;;4.15;;
31676;SDS011;18385;51.572;6.578;2024-03-17T03:42:25;13.23;;;5.30;;
31676;SDS011;18385;51.572;6.578;2024-03-17T03:44:52;10.32;;;5.18;;
31676;SDS011;18385;51.572;6.578;2024-03-17T03:47:18;8.18;;;4.32;;
31676;SDS011;18385;51.572;6.578;2024-03-17T03:49:43;16.23;;;5.13;;
31676;SDS011;18385;51.572;6.578;2024-03-17T03:52:10;15.35;;;4.78;;
31676;SDS011;18385;51.572;6.578;2024-03-17T03:54:36;6.93;;;4.13;;
31676;SDS011;18385;51.572;6.578;2024-03-17T03:57:02;10.63;;;4.25;;
31676;SDS011;18385;51.572;6.578;2024-03-17T03:59:27;11.63;;;4.70;;
31676;SDS011;18385;51.572;6.578;2024-03-17T04:01:54;11.05;;;4.97;;
31676;SDS011;18385;51.572;6.578;2024-03-17T04:04:19;14.95;;;5.00;;
31676;SDS011;18385;51.572;6.578;2024-03-17T04:06:45;11.38;;;5.80;;
31676;SDS011;18385;51.572;6.578;2024-03-17T04:09:12;11.85;;;4.97;;
31676;SDS011;18385;51.572;6.578;2024-03-17T04:11:37;13.48;;;5.20;;
31676;SDS011;18385;51.572;6.578;2024-03-17T04:14:03;9.77;;;4.13;;
31676;SDS011;18385;51.572;6.578;2024-03-17T04:16:30;11.68;;;4.75;;
31676;SDS011;18385;51.572;6.578;2024-03-17T04:18:56;10.43;;;4.70;;
31676;SDS011;18385;51.572;6.578;2024-03-17T04:21:23;12.55;;;4.70;;
31676;SDS011;18385;51.572;6.578;2024-03-17T04:23:48;8.35;;;4.20;;
31676;SDS011;18385;51.572;6.578;2024-03-17T04:26:14;16.10;;;5.45;;
31676;SDS011;18385;51.572;6.578;2024-03-17T04:28:40;9.73;;;4.78;;
31676;SDS011;18385;51.572;6.578;2024-03-17T04:31:05;12.52;;;5.50;;
31676;SDS011;18385;51.572;6.578;2024-03-17T04:33:32;13.30;;;4.85;;
31676;SDS011;18385;51.572;6.578;2024-03-17T04:35:58;9.25;;;4.57;;
31676;SDS011;18385;51.572;6.578;2024-03-17T04:38:25;11.40;;;4.63;;
31676;SDS011;18385;51.572;6.578;2024-03-17T04:40:51;12.18;;;5.20;;
31676;SDS011;18385;51.572;6.578;2024-03-17T04:43:34;12.68;;;5.18;;
31676;SDS011;18385;51.572;6.578;2024-03-17T04:46:01;18.50;;;6.82;;
31676;SDS011;18385;51.572;6.578;2024-03-17T04:48:29;14.18;;;5.07;;
31676;SDS011;18385;51.572;6.578;2024-03-17T04:50:55;13.23;;;5.20;;
31676;SDS011;18385;51.572;6.578;2024-03-17T04:53:21;13.02;;;4.90;;
31676;SDS011;18385;51.572;6.578;2024-03-17T04:55:47;12.55;;;5.40;;
31676;SDS011;18385;51.572;6.578;2024-03-17T04:58:12;13.40;;;4.97;;
31676;SDS011;18385;51.572;6.578;2024-03-17T05:00:38;12.90;;;5.45;;
31676;SDS011;18385;51.572;6.578;2024-03-17T05:03:04;13.00;;;5.80;;
31676;SDS011;18385;51.572;6.578;2024-03-17T05:05:29;10.35;;;4.72;;
31676;SDS011;18385;51.572;6.578;2024-03-17T05:07:55;10.95;;;5.15;;
31676;SDS011;18385;51.572;6.578;2024-03-17T05:10:20;12.18;;;6.53;;
31676;SDS011;18385;51.572;6.578;2024-03-17T05:12:46;12.00;;;5.72;;
31676;SDS011;18385;51.572;6.578;2024-03-17T05:15:13;14.68;;;6.38;;
31676;SDS011;18385;51.572;6.578;2024-03-17T05:17:38;12.93;;;6.40;;
31676;SDS011;18385;51.572;6.578;2024-03-17T05:20:04;12.80;;;6.05;;
31676;SDS011;18385;51.572;6.578;2024-03-17T05:22:33;12.10;;;5.78;;
31676;SDS011;18385;51.572;6.578;2024-03-17T05:24:58;9.93;;;5.07;;
31676;SDS011;18385;51.572;6.578;2024-03-17T05:27:24;15.07;;;5.28;;
31676;SDS011;18385;51.572;6.578;2024-03-17T05:29:49;13.10;;;5.13;;
31676;SDS011;18385;51.572;6.578;2024-03-17T05:32:16;14.93;;;5.55;;
31676;SDS011;18385;51.572;6.578;2024-03-17T05:34:41;16.83;;;5.35;;
31676;SDS011;18385;51.572;6.578;2024-03-17T05:37:08;11.43;;;5.07;;
31676;SDS011;18385;51.572;6.578;2024-03-17T05:39:33;13.18;;;5.25;;
31676;SDS011;18385;51.572;6.578;2024-03-17T05:41:59;11.75;;;5.80;;
31676;SDS011;18385;51.572;6.578;2024-03-17T05:44:25;13.50;;;6.25;;
31676;SDS011;18385;51.572;6.578;2024-03-17T05:46:50;9.77;;;5.22;;
31676;SDS011;18385;51.572;6.578;2024-03-17T05:49:18;12.48;;;5.72;;
31676;SDS011;18385;51.572;6.578;2024-03-17T05:51:46;12.73;;;5.97;;
31676;SDS011;18385;51.572;6.578;2024-03-17T05:54:11;13.65;;;6.45;;
31676;SDS011;18385;51.572;6.578;2024-03-17T05:56:37;11.32;;;6.32;;
31676;SDS011;18385;51.572;6.578;2024-03-17T05:59:04;13.48;;;6.05;;
31676;SDS011;18385;51.572;6.578;2024-03-17T06:01:30;12.38;;;5.80;;
31676;SDS011;18385;51.572;6.578;2024-03-17T06:03:56;14.48;;;5.50;;
31676;SDS011;18385;51.572;6.578;2024-03-17T06:06:21;13.30;;;6.03;;
31676;SDS011;18385;51.572;6.578;2024-03-17T06:08:47;12.30;;;5.90;;
31676;SDS011;18385;51.572;6.578;2024-03-17T06:11:14;16.25;;;6.03;;
31676;SDS011;18385;51.572;6.578;2024-03-17T06:13:40;14.85;;;5.55;;
31676;SDS011;18385;51.572;6.578;2024-03-17T06:16:05;17.25;;;5.57;;
31676;SDS011;18385;51.572;6.578;2024-03-17T06:18:31;13.63;;;5.60;;
31676;SDS011;18385;51.572;6.578;2024-03-17T06:20:57;10.82;;;5.07;;
31676;SDS011;18385;51.572;6.578;2024-03-17T06:23:25;12.55;;;5.18;;
31676;SDS011;18385;51.572;6.578;2024-03-17T06:25:52;17.55;;;5.20;;
31676;SDS011;18385;51.572;6.578;2024-03-17T06:28:19;11.18;;;5.03;;
31676;SDS011;18385;51.572;6.578;2024-03-17T06:30:46;15.50;;;5.57;;
31676;SDS011;18385;51.572;6.578;2024-03-17T06:33:19;17.15;;;5.22;;
31676;SDS011;18385;51.572;6.578;2024-03-17T06:35:46;15.70;;;5.80;;
31676;SDS011;18385;51.572;6.578;2024-03-17T06:38:12;11.35;;;4.78;;
31676;SDS011;18385;51.572;6.578;2024-03-17T06:40:38;13.20;;;5.93;;
31676;SDS011;18385;51.572;6.578;2024-03-17T06:43:04;11.43;;;5.20;;
31676;SDS011;18385;51.572;6.578;2024-03-17T06:45:31;12.52;;;5.10;;
31676;SDS011;18385;51.572;6.578;2024-03-17T06:47:57;11.77;;;4.95;;
31676;SDS011;18385;51.572;6.578;2024-03-17T06:50:23;9.45;;;4.85;;
31676;SDS011;18385;51.572;6.578;2024-03-17T06:52:49;9.80;;;4.32;;
31676;SDS011;18385;51.572;6.578;2024-03-17T06:55:15;10.90;;;4.47;;
31676;SDS011;18385;51.572;6.578;2024-03-17T06:57:41;11.77;;;5.25;;
31676;SDS011;18385;51.572;6.578;2024-03-17T07:00:12;9.68;;;4.57;;
31676;SDS011;18385;51.572;6.578;2024-03-17T07:02:41;8.65;;;4.63;;
31676;SDS011;18385;51.572;6.578;2024-03-17T07:05:11;7.85;;;3.90;;
31676;SDS011;18385;51.572;6.578;2024-03-17T07:07:43;6.82;;;4.05;;
31676;SDS011;18385;51.572;6.578;2024-03-17T07:10:09;12.30;;;4.55;;
31676;SDS011;18385;51.572;6.578;2024-03-17T07:12:36;7.47;;;3.53;;
31676;SDS011;18385;51.572;6.578;2024-03-17T07:15:02;6.75;;;4.07;;
31676;SDS011;18385;51.572;6.578;2024-03-17T07:17:29;8.35;;;3.75;;
31676;SDS011;18385;51.572;6.578;2024-03-17T07:19:54;8.50;;;4.22;;
31676;SDS011;18385;51.572;6.578;2024-03-17T07:22:20;6.35;;;4.07;;
31676;SDS011;18385;51.572;6.578;2024-03-17T07:24:47;9.75;;;4.85;;
31676;SDS011;18385;51.572;6.578;2024-03-17T07:27:15;10.13;;;4.13;;
31676;SDS011;18385;51.572;6.578;2024-03-17T07:29:40;6.18;;;3.47;;
31676;SDS011;18385;51.572;6.578;2024-03-17T07:32:06;8.50;;;3.67;;
31676;SDS011;18385;51.572;6.578;2024-03-17T07:34:32;10.48;;;3.95;;
31676;SDS011;18385;51.572;6.578;2024-03-17T07:36:58;7.47;;;3.92;;
31676;SDS011;18385;51.572;6.578;2024-03-17T07:39:28;7.28;;;4.20;;
31676;SDS011;18385;51.572;6.578;2024-03-17T07:42:01;5.88;;;3.67;;
31676;SDS011;18385;51.572;6.578;2024-03-17T07:44:30;4.82;;;3.00;;
31676;SDS011;18385;51.572;6.578;2024-03-17T07:47:00;6.75;;;3.20;;
31676;SDS011;18385;51.572;6.578;2024-03-17T07:49:26;6.22;;;2.83;;
31676;SDS011;18385;51.572;6.578;2024-03-17T07:51:51;6.05;;;3.20;;
31676;SDS011;18385;51.572;6.578;2024-03-17T07:54:17;6.63;;;3.10;;
31676;SDS011;18385;51.572;6.578;2024-03-17T07:56:44;10.05;;;2.83;;
31676;SDS011;18385;51.572;6.578;2024-03-17T07:59:11;6.38;;;3.58;;
31676;SDS011;18385;51.572;6.578;2024-03-17T08:01:39;5.82;;;2.90;;
31676;SDS011;18385;51.572;6.578;2024-03-17T08:04:04;8.02;;;3.38;;
31676;SDS011;18385;51.572;6.578;2024-03-17T08:06:30;9.18;;;3.67;;
31676;SDS011;18385;51.572;6.578;2024-03-17T08:08:56;5.07;;;3.17;;
31676;SDS011;18385;51.572;6.578;2024-03-17T08:11:22;7.85;;;3.50;;
31676;SDS011;18385;51.572;6.578;2024-03-17T08:13:48;8.48;;;3.30;;
31676;SDS011;18385;51.572;6.578;2024-03-17T08:16:14;10.80;;;3.63;;
31676;SDS011;18385;51.572;6.578;2024-03-17T08:18:40;8.32;;;4.30;;
31676;SDS011;18385;51.572;6.578;2024-03-17T08:21:06;11.32;;;5.18;;
31676;SDS011;18385;51.572;6.578;2024-03-17T08:23:32;13.00;;;5.75;;
31676;SDS011;18385;51.572;6.578;2024-03-17T08:26:01;9.05;;;4.55;;
31676;SDS011;18385;51.572;6.578;2024-03-17T08:28:27;12.40;;;4.28;;
31676;SDS011;18385;51.572;6.578;2024-03-17T08:33:20;11.07;;;4.07;;
31676;SDS011;18385;51.572;6.578;2024-03-17T08:35:56;10.30;;;3.65;;
31676;SDS011;18385;51.572;6.578;2024-03-17T08:38:27;9.27;;;4.22;;
31676;SDS011;18385;51.572;6.578;2024-03-17T08:40:53;10.90;;;3.95;;
31676;SDS011;18385;51.572;6.578;2024-03-17T08:43:20;11.13;;;4.05;;
31676;SDS011;18385;51.572;6.578;2024-03-17T08:48:23;9.70;;;4.47;;
31676;SDS011;18385;51.572;6.578;2024-03-17T08:50:50;7.93;;;3.47;;
31676;SDS011;18385;51.572;6.578;2024-03-17T08:53:17;7.32;;;3.65;;
31676;SDS011;18385;51.572;6.578;2024-03-17T08:55:43;8.23;;;4.13;;
31676;SDS011;18385;51.572;6.578;2024-03-17T08:58:09;7.13;;;3.88;;
31676;SDS011;18385;51.572;6.578;2024-03-17T09:00:35;9.13;;;4.28;;
31676;SDS011;18385;51.572;6.578;2024-03-17T09:03:02;7.80;;;4.00;;
31676;SDS011;18385;51.572;6.578;2024-03-17T09:05:28;6.63;;;3.40;;
31676;SDS011;18385;51.572;6.578;2024-03-17T09:07:53;7.85;;;3.88;;
31676;SDS011;18385;51.572;6.578;2024-03-17T09:10:20;6.90;;;3.35;;
31676;SDS011;18385;51.572;6.578;2024-03-17T09:12:46;6.32;;;3.28;;
31676;SDS011;18385;51.572;6.578;2024-03-17T09:15:12;6.97;;;3.50;;
31676;SDS011;18385;51.572;6.578;2024-03-17T09:17:39;7.13;;;3.78;;
31676;SDS011;18385;51.572;6.578;2024-03-17T09:20:06;6.65;;;3.35;;
31676;SDS011;18385;51.572;6.578;2024-03-17T09:22:37;8.05;;;2.75;;
31676;SDS011;18385;51.572;6.578;2024-03-17T09:25:07;7.70;;;3.30;;
31676;SDS011;18385;51.572;6.578;2024-03-17T09:29:59;5.60;;;2.83;;
31676;SDS011;18385;51.572;6.578;2024-03-17T09:32:25;5.55;;;3.08;;
31676;SDS011;18385;51.572;6.578;2024-03-17T09:34:51;5.13;;;3.13;;
31676;SDS011;18385;51.572;6.578;2024-03-17T09:37:17;5.07;;;2.78;;
31676;SDS011;18385;51.572;6.578;2024-03-17T09:39:42;4.80;;;2.58;;
31676;SDS011;18385;51.572;6.578;2024-03-17T09:44:41;5.90;;;2.85;;
31676;SDS011;18385;51.572;6.578;2024-03-17T09:47:08;5.38;;;2.40;;
31676;SDS011;18385;51.572;6.578;2024-03-17T09:49:41;9.88;;;2.80;;
31676;SDS011;18385;51.572;6.578;2024-03-17T09:52:07;7.65;;;2.55;;
31676;SDS011;18385;51.572;6.578;2024-03-17T09:54:44;7.00;;;2.92;;
31676;SDS011;18385;51.572;6.578;2024-03-17T09:57:13;6.15;;;2.60;;
31676;SDS011;18385;51.572;6.578;2024-03-17T09:59:41;8.77;;;3.25;;
31676;SDS011;18385;51.572;6.578;2024-03-17T10:02:11;6.47;;;3.03;;
31676;SDS011;18385;51.572;6.578;2024-03-17T10:04:43;7.20;;;2.90;;
31676;SDS011;18385;51.572;6.578;2024-03-17T10:07:09;8.55;;;3.20;;
31676;SDS011;18385;51.572;6.578;2024-03-17T10:09:34;7.40;;;3.00;;
31676;SDS011;18385;51.572;6.578;2024-03-17T10:12:01;10.23;;;3.88;;
31676;SDS011;18385;51.572;6.578;2024-03-17T10:14:27;8.38;;;3.33;;
31676;SDS011;18385;51.572;6.578;2024-03-17T10:16:53;11.27;;;3.90;;
31676;SDS011;18385;51.572;6.578;2024-03-17T10:19:22;9.45;;;4.20;;
31676;SDS011;18385;51.572;6.578;2024-03-17T10:21:49;7.82;;;3.45;;
31676;SDS011;18385;51.572;6.578;2024-03-17T10:24:23;7.90;;;3.45;;
31676;SDS011;18385;51.572;6.578;2024-03-17T10:26:54;8.13;;;3.25;;
31676;SDS011;18385;51.572;6.578;2024-03-17T10:29:34;9.05;;;3.47;;
31676;SDS011;18385;51.572;6.578;2024-03-17T10:32:14;10.38;;;3.30;;
31676;SDS011;18385;51.572;6.578;2024-03-17T10:34:42;8.88;;;2.70;;
31676;SDS011;18385;51.572;6.578;2024-03-17T10:37:18;6.72;;;2.88;;
31676;SDS011;18385;51.572;6.578;2024-03-17T10:39:48;7.00;;;2.13;;
31676;SDS011;18385;51.572;6.578;2024-03-17T10:42:24;12.00;;;3.85;;
31676;SDS011;18385;51.572;6.578;2024-03-17T10:44:53;10.07;;;3.40;;
31676;SDS011;18385;51.572;6.578;2024-03-17T10:49:46;9.45;;;3.30;;
31676;SDS011;18385;51.572;6.578;2024-03-17T10:52:17;8.55;;;3.42;;
31676;SDS011;18385;51.572;6.578;2024-03-17T10:54:50;10.60;;;3.38;;
31676;SDS011;18385;51.572;6.578;2024-03-17T10:59:49;8.77;;;3.58;;
31676;SDS011;18385;51.572;6.578;2024-03-17T11:04:56;6.78;;;2.15;;
31676;SDS011;18385;51.572;6.578;2024-03-17T11:07:23;8.00;;;2.83;;
31676;SDS011;18385;51.572;6.578;2024-03-17T11:09:52;6.70;;;2.50;;
31676;SDS011;18385;51.572;6.578;2024-03-17T11:20:34;5.35;;;2.13;;
31676;SDS011;18385;51.572;6.578;2024-03-17T11:23:01;6.32;;;2.17;;
31676;SDS011;18385;51.572;6.578;2024-03-17T11:27:56;3.70;;;1.70;;
31676;SDS011;18385;51.572;6.578;2024-03-17T11:39:00;5.80;;;2.28;;
31676;SDS011;18385;51.572;6.578;2024-03-17T11:46:50;3.40;;;2.05;;
31676;SDS011;18385;51.572;6.578;2024-03-17T11:51:53;4.47;;;2.25;;
31676;SDS011;18385;51.572;6.578;2024-03-17T11:54:21;5.35;;;2.00;;
31676;SDS011;18385;51.572;6.578;2024-03-17T11:56:52;6.32;;;2.90;;
31676;SDS011;18385;51.572;6.578;2024-03-17T11:59:20;8.27;;;3.40;;
31676;SDS011;18385;51.572;6.578;2024-03-17T12:01:47;7.10;;;3.00;;
31676;SDS011;18385;51.572;6.578;2024-03-17T12:04:14;7.22;;;3.10;;
31676;SDS011;18385;51.572;6.578;2024-03-17T12:06:44;6.57;;;2.58;;
31676;SDS011;18385;51.572;6.578;2024-03-17T12:14:38;4.53;;;1.88;;
31676;SDS011;18385;51.572;6.578;2024-03-17T12:17:07;6.45;;;2.47;;
31676;SDS011;18385;51.572;6.578;2024-03-17T12:19:35;4.85;;;2.05;;
31676;SDS011;18385;51.572;6.578;2024-03-17T12:22:03;5.25;;;2.15;;
31676;SDS011;18385;51.572;6.578;2024-03-17T12:24:33;5.30;;;2.00;;
31676;SDS011;18385;51.572;6.578;2024-03-17T12:27:01;5.75;;;2.47;;
31676;SDS011;18385;51.572;6.578;2024-03-17T12:29:37;4.75;;;2.50;;
31676;SDS011;18385;51.572;6.578;2024-03-17T12:32:15;5.15;;;2.22;;
31676;SDS011;18385;51.572;6.578;2024-03-17T12:34:44;6.35;;;1.95;;
31676;SDS011;18385;51.572;6.578;2024-03-17T12:37:17;10.73;;;4.03;;
31676;SDS011;18385;51.572;6.578;2024-03-17T12:39:44;7.68;;;2.13;;
31676;SDS011;18385;51.572;6.578;2024-03-17T12:42:11;4.15;;;1.98;;
31676;SDS011;18385;51.572;6.578;2024-03-17T12:44:55;5.70;;;2.08;;
31676;SDS011;18385;51.572;6.578;2024-03-17T12:47:23;6.28;;;2.85;;
31676;SDS011;18385;51.572;6.578;2024-03-17T12:49:50;6.65;;;2.67;;
31676;SDS011;18385;51.572;6.578;2024-03-17T12:52:24;9.80;;;4.35;;
31676;SDS011;18385;51.572;6.578;2024-03-17T12:54:58;7.68;;;3.20;;
31676;SDS011;18385;51.572;6.578;2024-03-17T12:57:54;6.85;;;3.13;;
31676;SDS011;18385;51.572;6.578;2024-03-17T13:00:58;5.75;;;2.60;;
31676;SDS011;18385;51.572;6.578;2024-03-17T13:03:34;7.75;;;2.40;;
31676;SDS011;18385;51.572;6.578;2024-03-17T13:06:04;7.55;;;2.55;;
31676;SDS011;18385;51.572;6.578;2024-03-17T13:08:31;5.20;;;2.17;;
31676;SDS011;18385;51.572;6.578;2024-03-17T13:10:58;5.00;;;1.85;;
31676;SDS011;18385;51.572;6.578;2024-03-17T13:13:24;3.55;;;1.85;;
31676;SDS011;18385;51.572;6.578;2024-03-17T13:15:50;3.65;;;2.33;;
31676;SDS011;18385;51.572;6.578;2024-03-17T13:18:16;4.82;;;2.20;;
31676;SDS011;18385;51.572;6.578;2024-03-17T13:20:46;5.55;;;2.30;;
31676;SDS011;18385;51.572;6.578;2024-03-17T13:23:14;8.65;;;2.97;;
31676;SDS011;18385;51.572;6.578;2024-03-17T13:25:40;4.03;;;1.70;;
31676;SDS011;18385;51.572;6.578;2024-03-17T13:28:08;6.55;;;2.42;;
31676;SDS011;18385;51.572;6.578;2024-03-17T13:30:35;4.30;;;1.90;;
31676;SDS011;18385;51.572;6.578;2024-03-17T13:33:04;6.03;;;2.13;;
31676;SDS011;18385;51.572;6.578;2024-03-17T13:35:34;6.32;;;1.75;;
31676;SDS011;18385;51.572;6.578;2024-03-17T13:38:04;4.85;;;1.83;;
31676;SDS011;18385;51.572;6.578;2024-03-17T13:40:32;4.40;;;1.95;;
31676;SDS011;18385;51.572;6.578;2024-03-17T13:42:59;6.10;;;1.90;;
31676;SDS011;18385;51.572;6.578;2024-03-17T13:45:26;4.60;;;1.92;;
31676;SDS011;18385;51.572;6.578;2024-03-17T13:48:01;5.72;;;1.60;;
31676;SDS011;18385;51.572;6.578;2024-03-17T13:50:31;4.68;;;1.65;;
31676;SDS011;18385;51.572;6.578;2024-03-17T13:52:57;3.97;;;1.73;;
31676;SDS011;18385;51.572;6.578;2024-03-17T13:55:24;6.75;;;1.63;;
31676;SDS011;18385;51.572;6.578;2024-03-17T13:57:54;5.40;;;1.98;;
31676;SDS011;18385;51.572;6.578;2024-03-17T14:00:21;5.95;;;2.03;;
31676;SDS011;18385;51.572;6.578;2024-03-17T14:02:54;7.53;;;2.03;;
31676;SDS011;18385;51.572;6.578;2024-03-17T14:05:27;2.78;;;1.33;;
31676;SDS011;18385;51.572;6.578;2024-03-17T14:07:53;3.40;;;1.60;;
31676;SDS011;18385;51.572;6.578;2024-03-17T14:10:21;3.83;;;1.58;;
31676;SDS011;18385;51.572;6.578;2024-03-17T14:12:47;5.25;;;1.52;;
31676;SDS011;18385;51.572;6.578;2024-03-17T14:15:13;6.15;;;2.17;;
31676;SDS011;18385;51.572;6.578;2024-03-17T14:17:40;4.90;;;1.60;;
31676;SDS011;18385;51.572;6.578;2024-03-17T14:20:07;4.57;;;1.33;;
31676;SDS011;18385;51.572;6.578;2024-03-17T14:22:37;4.93;;;1.77;;
31676;SDS011;18385;51.572;6.578;2024-03-17T14:25:05;5.55;;;1.52;;
31676;SDS011;18385;51.572;6.578;2024-03-17T14:27:31;6.03;;;2.08;;
31676;SDS011;18385;51.572;6.578;2024-03-17T14:29:57;3.63;;;1.60;;
31676;SDS011;18385;51.572;6.578;2024-03-17T14:32:23;11.10;;;1.98;;
31676;SDS011;18385;51.572;6.578;2024-03-17T14:34:49;4.82;;;1.63;;
31676;SDS011;18385;51.572;6.578;2024-03-17T14:37:14;4.25;;;1.35;;
31676;SDS011;18385;51.572;6.578;2024-03-17T14:39:40;5.53;;;1.75;;
31676;SDS011;18385;51.572;6.578;2024-03-17T14:42:06;4.80;;;1.40;;
31676;SDS011;18385;51.572;6.578;2024-03-17T14:44:34;6.78;;;2.38;;
31676;SDS011;18385;51.572;6.578;2024-03-17T14:47:00;7.88;;;1.67;;
31676;SDS011;18385;51.572;6.578;2024-03-17T14:49:26;7.35;;;2.45;;
31676;SDS011;18385;51.572;6.578;2024-03-17T14:51:53;5.32;;;1.80;;
31676;SDS011;18385;51.572;6.578;2024-03-17T14:54:18;11.13;;;3.45;;
31676;SDS011;18385;51.572;6.578;2024-03-17T14:56:45;16.45;;;5.68;;
31676;SDS011;18385;51.572;6.578;2024-03-17T14:59:11;12.90;;;5.22;;
31676;SDS011;18385;51.572;6.578;2024-03-17T15:01:37;6.03;;;2.42;;
31676;SDS011;18385;51.572;6.578;2024-03-17T15:04:03;5.22;;;2.03;;
31676;SDS011;18385;51.572;6.578;2024-03-17T15:06:28;4.22;;;1.65;;
31676;SDS011;18385;51.572;6.578;2024-03-17T15:08:54;7.32;;;2.30;;
31676;SDS011;18385;51.572;6.578;2024-03-17T15:11:20;5.20;;;2.22;;
31676;SDS011;18385;51.572;6.578;2024-03-17T15:13:46;4.57;;;1.85;;
31676;SDS011;18385;51.572;6.578;2024-03-17T15:16:11;4.97;;;2.08;;
31676;SDS011;18385;51.572;6.578;2024-03-17T15:18:40;11.77;;;3.60;;
31676;SDS011;18385;51.572;6.578;2024-03-17T15:21:06;8.52;;;3.50;;
31676;SDS011;18385;51.572;6.578;2024-03-17T15:23:32;10.98;;;3.20;;
31676;SDS011;18385;51.572;6.578;2024-03-17T15:26:04;6.43;;;2.78;;
31676;SDS011;18385;51.572;6.578;2024-03-17T15:28:34;6.55;;;2.53;;
31676;SDS011;18385;51.572;6.578;2024-03-17T15:31:04;4.05;;;1.88;;
31676;SDS011;18385;51.572;6.578;2024-03-17T15:33:31;9.45;;;4.13;;
31676;SDS011;18385;51.572;6.578;2024-03-17T15:36:01;4.40;;;1.50;;